createdAt,value
2022-08-04T00:01:37.950Z,21.40
2022-08-04T00:04:12.334Z,21.30
2022-08-04T00:07:02.654Z,21.20
2022-08-04T00:09:32.353Z,21.20
2022-08-04T00:12:02.094Z,21.20
2022-08-04T00:14:32.192Z,21.20
2022-08-04T00:17:00.247Z,21.10
2022-08-04T00:19:30.951Z,21.10
2022-08-04T00:22:01.655Z,21.10
2022-08-04T00:24:30.994Z,21.00
2022-08-04T00:26:59.165Z,21.00
2022-08-04T00:29:27.525Z,21.00
2022-08-04T00:31:58.081Z,20.90
2022-08-04T00:34:27.360Z,20.90
2022-08-04T00:36:56.199Z,20.80
2022-08-04T00:39:24.534Z,20.80
2022-08-04T00:42:26.113Z,20.70
2022-08-04T00:45:12.297Z,20.70
2022-08-04T00:47:46.225Z,20.60
2022-08-04T00:50:19.262Z,20.60
2022-08-04T00:52:57.919Z,20.50
2022-08-04T00:55:37.478Z,20.50
2022-08-04T00:58:14.203Z,20.40
2022-08-04T01:00:45.506Z,20.40
2022-08-04T01:03:19.395Z,20.40
2022-08-04T01:05:53.979Z,20.40
2022-08-04T01:08:53.824Z,20.30
2022-08-04T01:11:28.748Z,20.30
2022-08-04T01:14:16.816Z,20.30
2022-08-04T01:16:49.118Z,20.30
2022-08-04T01:19:41.674Z,20.30
2022-08-04T01:22:19.643Z,20.30
2022-08-04T01:25:02.375Z,20.20
2022-08-04T01:27:42.543Z,20.20
2022-08-04T01:30:12.004Z,20.10
2022-08-04T01:32:42.175Z,20.10
2022-08-04T01:35:15.330Z,20.10
2022-08-04T01:37:55.810Z,20.00
2022-08-04T01:40:23.916Z,20.00
2022-08-04T01:42:54.226Z,20.00
2022-08-04T01:45:24.800Z,19.90
2022-08-04T01:47:53.842Z,19.90
2022-08-04T01:50:22.185Z,19.90
2022-08-04T01:52:51.290Z,19.90
2022-08-04T01:55:19.572Z,19.90
2022-08-04T01:57:49.043Z,19.80
2022-08-04T02:00:17.975Z,19.80
2022-08-04T02:02:47.474Z,19.80
2022-08-04T02:05:17.010Z,19.80
2022-08-04T02:07:51.370Z,19.80
2022-08-04T02:10:24.677Z,19.80
2022-08-04T02:12:57.267Z,19.70
2022-08-04T02:15:29.002Z,19.70
2022-08-04T02:18:04.675Z,19.70
2022-08-04T02:20:35.643Z,19.70
2022-08-04T02:23:05.642Z,19.70
2022-08-04T02:25:41.322Z,19.70
2022-08-04T02:28:14.361Z,19.70
2022-08-04T02:30:46.519Z,19.60
2022-08-04T02:33:18.383Z,19.60
2022-08-04T02:35:46.533Z,19.60
2022-08-04T02:38:25.679Z,19.60
2022-08-04T02:40:55.466Z,19.60
2022-08-04T02:43:50.764Z,19.50
2022-08-04T02:46:17.891Z,19.50
2022-08-04T02:48:48.889Z,19.50
2022-08-04T02:51:21.079Z,19.40
2022-08-04T02:53:49.481Z,19.40
2022-08-04T02:56:17.559Z,19.40
2022-08-04T02:58:45.606Z,19.40
2022-08-04T03:01:13.739Z,19.30
2022-08-04T03:03:42.704Z,19.30
2022-08-04T03:06:44.072Z,19.30
2022-08-04T03:09:35.200Z,19.30
2022-08-04T03:12:29.979Z,19.20
2022-08-04T03:15:20.332Z,19.20
2022-08-04T03:18:27.359Z,19.20
2022-08-04T03:21:27.179Z,19.20
2022-08-04T03:24:36.729Z,19.20
2022-08-04T03:27:30.465Z,19.20
2022-08-04T03:30:08.934Z,19.10
2022-08-04T03:33:04.596Z,19.10
2022-08-04T03:35:43.647Z,19.10
2022-08-04T03:38:41.513Z,19.00
2022-08-04T03:41:55.069Z,19.00
2022-08-04T03:45:01.790Z,19.00
2022-08-04T03:47:54.038Z,19.00
2022-08-04T03:50:41.409Z,19.00
2022-08-04T03:53:36.044Z,19.00
2022-08-04T04:00:14.739Z,19.00
2022-08-04T04:03:23.562Z,19.00
2022-08-04T04:06:22.134Z,19.00
2022-08-04T04:09:32.096Z,19.10
2022-08-04T04:12:35.168Z,19.00
2022-08-04T04:15:19.110Z,19.00
2022-08-04T04:17:57.294Z,19.00
2022-08-04T04:20:42.459Z,19.00
2022-08-04T04:23:41.937Z,19.00
2022-08-04T04:26:25.622Z,19.10
2022-08-04T04:29:03.256Z,19.10
2022-08-04T04:32:00.661Z,19.10
2022-08-04T04:34:36.959Z,19.20
2022-08-04T04:37:22.619Z,19.20
2022-08-04T04:39:56.857Z,19.20
2022-08-04T04:42:37.449Z,19.30
2022-08-04T04:45:16.460Z,19.40
2022-08-04T04:48:09.160Z,19.50
2022-08-04T04:50:46.273Z,19.60
2022-08-04T04:53:19.212Z,19.70
2022-08-04T04:55:55.040Z,19.80
2022-08-04T04:58:42.119Z,19.90
2022-08-04T05:01:40.279Z,20.10
2022-08-04T05:04:18.763Z,20.20
2022-08-04T05:06:54.803Z,20.40
2022-08-04T05:09:33.039Z,20.60
2022-08-04T05:14:32.166Z,20.60
2022-08-04T05:15:14.285Z,20.70
2022-08-04T05:17:43.116Z,20.90
2022-08-04T05:20:14.156Z,21.00
2022-08-04T05:22:44.627Z,21.10
2022-08-04T05:25:16.883Z,21.30
2022-08-04T05:27:47.635Z,21.40
2022-08-04T05:30:15.691Z,21.70
2022-08-04T05:32:46.839Z,21.90
2022-08-04T05:35:37.420Z,22.00
2022-08-04T05:38:18.384Z,22.20
2022-08-04T05:40:46.445Z,22.50
2022-08-04T05:43:14.745Z,22.70
2022-08-04T05:45:43.344Z,23.00
2022-08-04T05:48:11.383Z,23.30
2022-08-04T05:50:40.803Z,23.60
2022-08-04T05:53:08.841Z,23.80
2022-08-04T05:55:57.146Z,24.20
2022-08-04T05:58:24.977Z,24.40
2022-08-04T06:00:53.167Z,24.70
2022-08-04T06:03:21.447Z,25.00
2022-08-04T06:05:50.843Z,25.30
2022-08-04T06:08:19.493Z,25.60
2022-08-04T06:10:47.681Z,25.90
2022-08-04T06:13:47.715Z,26.20
2022-08-04T06:16:05.396Z,26.40
2022-08-04T06:20:00.401Z,26.70
2022-08-04T06:21:24.949Z,27.00
2022-08-04T06:23:57.866Z,27.00
2022-08-04T06:26:31.763Z,27.00
2022-08-04T06:29:00.004Z,27.00
2022-08-04T06:32:31.797Z,27.40
2022-08-04T06:34:31.616Z,27.60
2022-08-04T06:37:01.014Z,27.80
2022-08-04T06:39:29.132Z,28.10
2022-08-04T06:42:22.161Z,28.40
2022-08-04T06:44:47.445Z,28.60
2022-08-04T06:47:19.406Z,28.90
2022-08-04T06:51:23.384Z,29.30
2022-08-04T06:52:37.597Z,29.60
2022-08-04T06:55:06.660Z,29.90
2022-08-04T06:57:35.521Z,30.10
2022-08-04T07:00:06.179Z,29.90
2022-08-04T07:02:38.765Z,29.90
2022-08-04T07:05:07.948Z,29.90
2022-08-04T07:07:56.809Z,30.00
2022-08-04T07:10:25.823Z,30.20
2022-08-04T07:12:54.057Z,30.50
2022-08-04T07:15:22.291Z,30.70
2022-08-04T07:17:52.258Z,30.90
2022-08-04T07:20:32.976Z,31.00
2022-08-04T07:23:05.620Z,31.10
2022-08-04T07:25:58.628Z,31.20
2022-08-04T07:28:22.583Z,31.60
2022-08-04T07:30:50.917Z,31.80
2022-08-04T07:33:19.075Z,32.00
2022-08-04T07:36:04.820Z,32.10
2022-08-04T07:38:37.621Z,32.30
2022-08-04T07:43:56.900Z,32.30
2022-08-04T07:46:25.550Z,32.80
2022-08-04T07:48:59.435Z,32.60
2022-08-04T07:51:27.679Z,32.80
2022-08-04T07:53:57.315Z,33.20
2022-08-04T07:56:25.548Z,33.20
2022-08-04T07:58:53.614Z,33.50
2022-08-04T08:01:21.677Z,33.60
2022-08-04T08:03:49.860Z,33.70
2022-08-04T08:06:32.295Z,34.20
2022-08-04T08:09:13.538Z,34.10
2022-08-04T08:12:35.967Z,34.10
2022-08-04T08:14:31.514Z,34.40
2022-08-04T08:17:01.613Z,34.90
2022-08-04T08:19:29.903Z,35.50
2022-08-04T08:21:59.241Z,35.70
2022-08-04T08:24:29.814Z,36.10
2022-08-04T08:26:57.951Z,36.40
2022-08-04T08:29:26.059Z,36.80
2022-08-04T08:31:57.492Z,37.00
2022-08-04T08:34:28.648Z,37.20
2022-08-04T08:37:00.863Z,37.50
2022-08-04T08:39:34.388Z,37.40
2022-08-04T08:42:30.438Z,37.50
2022-08-04T08:45:17.687Z,37.70
2022-08-04T08:48:04.666Z,38.10
2022-08-04T08:50:55.272Z,38.30
2022-08-04T08:53:29.059Z,38.60
2022-08-04T08:56:18.269Z,38.60
2022-08-04T08:58:53.241Z,38.80
2022-08-04T09:01:37.011Z,38.90
2022-08-04T09:04:43.435Z,39.30
2022-08-04T09:07:39.575Z,39.50
2022-08-04T09:10:13.500Z,39.50
2022-08-04T09:12:47.923Z,39.60
2022-08-04T09:15:18.291Z,39.60
2022-08-04T09:17:48.667Z,39.90
2022-08-04T09:20:20.668Z,40.10
2022-08-04T09:22:51.851Z,40.00
2022-08-04T09:25:21.998Z,40.30
2022-08-04T09:27:53.328Z,40.50
2022-08-04T09:30:22.021Z,40.70
2022-08-04T09:32:57.509Z,40.70
2022-08-04T09:35:31.338Z,40.80
2022-08-04T09:38:03.436Z,40.70
2022-08-04T09:40:53.375Z,40.30
2022-08-04T09:43:57.174Z,40.40
2022-08-04T09:46:21.030Z,40.50
2022-08-04T09:48:53.042Z,40.90
2022-08-04T09:51:25.432Z,41.10
2022-08-04T09:54:30.135Z,41.20
2022-08-04T09:57:05.003Z,40.90
2022-08-04T09:59:37.771Z,41.20
2022-08-04T10:02:08.610Z,41.20
2022-08-04T10:04:37.192Z,41.40
2022-08-04T10:07:25.528Z,41.40
2022-08-04T10:10:15.151Z,41.60
2022-08-04T10:12:50.567Z,41.70
2022-08-04T10:15:21.820Z,41.60
2022-08-04T10:18:05.450Z,41.80
2022-08-04T10:20:47.071Z,41.60
2022-08-04T10:23:23.570Z,41.80
2022-08-04T10:26:07.522Z,42.00
2022-08-04T10:28:39.213Z,42.20
2022-08-04T10:31:10.632Z,42.20
2022-08-04T10:33:42.891Z,42.30
2022-08-04T10:36:11.675Z,42.50
2022-08-04T10:38:43.602Z,42.70
2022-08-04T10:41:13.757Z,42.60
2022-08-04T10:43:47.826Z,42.70
2022-08-04T10:46:19.487Z,42.60
2022-08-04T10:48:50.672Z,42.90
2022-08-04T10:51:23.019Z,43.00
2022-08-04T10:53:54.044Z,43.00
2022-08-04T10:56:30.197Z,42.50
2022-08-04T10:59:02.885Z,42.30
2022-08-04T11:01:59.694Z,42.50
2022-08-04T11:04:26.734Z,42.80
2022-08-04T11:06:56.506Z,42.80
2022-08-04T11:09:24.551Z,42.70
2022-08-04T11:12:01.060Z,42.80
2022-08-04T11:14:32.674Z,42.30
2022-08-04T11:17:03.055Z,42.00
2022-08-04T11:19:44.671Z,42.70
2022-08-04T11:22:24.861Z,42.40
2022-08-04T11:24:55.203Z,42.70
2022-08-04T11:27:27.417Z,42.00
2022-08-04T11:30:01.274Z,42.30
2022-08-04T11:32:36.110Z,42.40
2022-08-04T11:35:05.397Z,42.80
2022-08-04T11:37:38.086Z,43.00
2022-08-04T11:40:11.023Z,43.20
2022-08-04T11:42:39.850Z,43.30
2022-08-04T11:45:09.165Z,43.40
2022-08-04T11:47:42.596Z,43.40
2022-08-04T11:50:12.408Z,43.20
2022-08-04T11:52:41.268Z,42.70
2022-08-04T11:55:11.452Z,42.30
2022-08-04T11:57:39.565Z,42.10
2022-08-04T12:00:10.861Z,42.60
2022-08-04T12:02:51.978Z,42.80
2022-08-04T12:05:35.600Z,42.90
2022-08-04T12:08:12.407Z,42.30
2022-08-04T12:10:43.870Z,42.20
2022-08-04T12:13:20.449Z,42.50
2022-08-04T12:15:54.462Z,42.30
2022-08-04T12:18:25.060Z,42.40
2022-08-04T12:21:01.375Z,42.10
2022-08-04T12:23:32.333Z,41.90
2022-08-04T12:26:03.499Z,40.80
2022-08-04T12:28:59.714Z,41.00
2022-08-04T12:31:27.761Z,40.20
2022-08-04T12:34:04.762Z,40.80
2022-08-04T12:36:37.057Z,40.70
2022-08-04T12:39:08.635Z,40.90
2022-08-04T12:41:40.039Z,40.30
2022-08-04T12:44:11.256Z,40.40
2022-08-04T12:47:28.405Z,40.00
2022-08-04T12:50:00.327Z,40.40
2022-08-04T12:53:01.021Z,40.60
2022-08-04T12:55:18.463Z,40.90
2022-08-04T12:57:46.936Z,40.70
2022-08-04T13:00:26.280Z,40.70
2022-08-04T13:03:01.238Z,40.60
2022-08-04T13:05:31.290Z,40.20
2022-08-04T13:07:59.332Z,40.20
2022-08-04T13:10:30.346Z,40.10
2022-08-04T13:13:00.255Z,40.20
2022-08-04T13:15:29.315Z,40.40
2022-08-04T13:17:59.991Z,40.40
2022-08-04T13:20:31.390Z,40.30
2022-08-04T13:23:06.067Z,40.50
2022-08-04T13:26:44.207Z,40.30
2022-08-04T13:28:29.043Z,40.20
2022-08-04T13:30:58.587Z,39.90
2022-08-04T13:33:30.443Z,39.90
2022-08-04T13:36:00.420Z,40.20
2022-08-04T13:38:28.941Z,40.20
2022-08-04T13:40:57.831Z,40.10
2022-08-04T13:44:15.641Z,40.20
2022-08-04T13:46:27.803Z,40.40
2022-08-04T13:49:23.506Z,40.40
2022-08-04T13:51:58.402Z,40.20
2022-08-04T13:54:30.513Z,40.20
2022-08-04T13:57:00.600Z,39.90
2022-08-04T13:59:29.559Z,39.80
2022-08-04T14:02:00.948Z,39.70
2022-08-04T14:04:29.316Z,39.40
2022-08-04T14:07:03.569Z,39.40
2022-08-04T14:09:35.054Z,39.50
2022-08-04T14:12:37.663Z,39.50
2022-08-04T14:14:56.394Z,39.70
2022-08-04T14:17:29.873Z,39.80
2022-08-04T14:20:00.059Z,39.50
2022-08-04T14:22:34.879Z,39.30
2022-08-04T14:25:05.372Z,39.10
2022-08-04T14:27:42.583Z,38.80
2022-08-04T14:30:22.402Z,38.50
2022-08-04T14:34:02.570Z,38.50
2022-08-04T14:35:57.678Z,38.70
2022-08-04T14:38:27.110Z,38.70
2022-08-04T14:40:55.168Z,38.60
2022-08-04T14:43:23.468Z,38.30
2022-08-04T14:45:55.442Z,38.20
2022-08-04T14:48:23.915Z,38.30
2022-08-04T14:50:52.582Z,38.20
2022-08-04T14:53:21.901Z,38.30
2022-08-04T14:55:52.002Z,38.50
2022-08-04T14:58:34.497Z,38.70
2022-08-04T15:01:10.391Z,38.90
2022-08-04T15:03:50.840Z,39.20
2022-08-04T15:06:23.227Z,39.20
2022-08-04T15:08:51.857Z,39.40
2022-08-04T15:11:23.367Z,39.40
2022-08-04T15:13:52.374Z,39.40
2022-08-04T15:16:20.704Z,39.50
2022-08-04T15:18:49.636Z,39.20
2022-08-04T15:21:17.925Z,38.70
2022-08-04T15:23:45.985Z,38.60
2022-08-04T15:26:14.840Z,38.80
2022-08-04T15:28:54.300Z,39.10
2022-08-04T15:32:05.881Z,39.20
2022-08-04T15:34:10.813Z,39.40
2022-08-04T15:36:43.419Z,39.40
2022-08-04T15:39:20.614Z,39.40
2022-08-04T15:41:55.235Z,39.20
2022-08-04T15:45:01.733Z,39.10
2022-08-04T15:47:29.759Z,38.80
2022-08-04T15:50:05.691Z,39.00
2022-08-04T15:53:00.982Z,39.20
2022-08-04T15:55:39.084Z,39.20
2022-08-04T15:58:08.531Z,39.40
2022-08-04T16:01:13.667Z,39.40
2022-08-04T16:04:00.401Z,39.30
2022-08-04T16:06:47.804Z,39.30
2022-08-04T16:09:46.089Z,39.10
2022-08-04T16:12:54.380Z,39.30
2022-08-04T16:15:39.110Z,39.40
2022-08-04T16:18:13.769Z,39.50
2022-08-04T16:20:46.701Z,39.50
2022-08-04T16:24:05.422Z,39.60
2022-08-04T16:26:46.193Z,39.60
2022-08-04T16:29:38.940Z,39.60
2022-08-04T16:32:14.782Z,39.40
2022-08-04T16:34:49.063Z,39.10
2022-08-04T16:37:20.456Z,38.70
2022-08-04T16:39:50.451Z,38.40
2022-08-04T16:42:33.522Z,38.10
2022-08-04T16:45:02.285Z,37.90
2022-08-04T16:48:01.962Z,37.60
2022-08-04T16:50:30.180Z,37.40
2022-08-04T16:52:59.574Z,37.20
2022-08-04T16:55:28.855Z,37.10
2022-08-04T16:57:59.067Z,36.90
2022-08-04T17:00:31.412Z,36.70
2022-08-04T17:02:59.597Z,36.50
2022-08-04T17:05:38.348Z,36.40
2022-08-04T17:10:57.808Z,35.90
2022-08-04T17:14:03.759Z,35.60
2022-08-04T17:16:18.332Z,35.50
2022-08-04T17:18:47.747Z,35.30
2022-08-04T17:21:19.583Z,35.10
2022-08-04T17:24:14.642Z,35.00
2022-08-04T17:26:39.908Z,34.90
2022-08-04T17:29:09.690Z,34.70
2022-08-04T17:31:40.726Z,34.60
2022-08-04T17:34:16.596Z,34.50
2022-08-04T17:36:47.890Z,34.50
2022-08-04T17:39:20.047Z,34.40
2022-08-04T17:41:49.716Z,34.20
2022-08-04T17:44:18.008Z,34.00
2022-08-04T17:46:48.409Z,33.90
2022-08-04T17:49:23.219Z,33.70
2022-08-04T17:52:04.321Z,33.50
2022-08-04T17:54:40.810Z,33.30
2022-08-04T17:57:15.783Z,33.10
2022-08-04T17:59:57.192Z,33.00
2022-08-04T18:02:32.564Z,32.70
2022-08-04T18:05:06.105Z,32.60
2022-08-04T18:08:39.364Z,32.30
2022-08-04T18:10:52.139Z,32.10
2022-08-04T18:13:27.489Z,31.90
2022-08-04T18:16:02.973Z,31.80
2022-08-04T18:18:31.197Z,31.50
2022-08-04T18:21:03.012Z,31.40
2022-08-04T18:23:33.258Z,31.20
2022-08-04T18:26:03.544Z,31.10
2022-08-04T18:28:33.279Z,30.90
2022-08-04T18:31:02.371Z,30.70
2022-08-04T18:33:40.706Z,30.60
2022-08-04T18:36:32.844Z,30.50
2022-08-04T18:38:59.167Z,30.50
2022-08-04T18:41:28.980Z,30.30
2022-08-04T18:44:16.962Z,30.10
2022-08-04T18:46:52.502Z,30.00
2022-08-04T18:51:00.118Z,29.90
2022-08-04T18:52:14.941Z,29.70
2022-08-04T18:54:44.145Z,29.50
2022-08-04T18:57:32.838Z,29.40
2022-08-04T19:00:01.703Z,29.30
2022-08-04T19:02:29.848Z,29.20
2022-08-04T19:04:57.899Z,29.10
2022-08-04T19:07:30.928Z,29.00
2022-08-04T19:09:59.846Z,28.90
2022-08-04T19:12:29.517Z,28.90
2022-08-04T19:15:08.026Z,28.80
2022-08-04T19:17:55.076Z,28.70
2022-08-04T19:20:26.751Z,28.50
2022-08-04T19:24:23.472Z,28.50
2022-08-04T19:26:02.230Z,28.40
2022-08-04T19:31:28.217Z,28.20
2022-08-04T19:34:04.589Z,28.10
2022-08-04T19:36:33.733Z,28.00
2022-08-04T19:39:02.753Z,27.90
2022-08-04T19:41:33.348Z,27.90
2022-08-04T19:44:23.584Z,27.80
2022-08-04T19:46:52.360Z,27.70
2022-08-04T19:50:03.254Z,27.40
2022-08-04T19:52:09.216Z,27.60
2022-08-04T19:54:40.694Z,27.80
2022-08-04T19:57:09.091Z,28.00
2022-08-04T19:59:48.412Z,28.10
2022-08-04T20:02:16.622Z,28.20
2022-08-04T20:04:44.657Z,28.30
2022-08-04T20:07:15.731Z,28.30
2022-08-04T20:09:53.442Z,28.30
2022-08-04T20:12:21.926Z,28.20
2022-08-04T20:14:51.329Z,28.20
2022-08-04T20:17:19.647Z,28.20
2022-08-04T20:20:08.530Z,28.10
2022-08-04T20:22:50.734Z,28.10
2022-08-04T20:25:37.619Z,28.10
2022-08-04T20:28:07.059Z,28.00
2022-08-04T20:30:36.463Z,27.90
2022-08-04T20:33:06.899Z,27.90
2022-08-04T20:35:46.016Z,27.80
2022-08-04T20:38:33.589Z,27.80
2022-08-04T20:41:02.327Z,27.60
2022-08-04T20:43:31.236Z,27.60
2022-08-04T20:46:00.920Z,27.50
2022-08-04T20:48:29.318Z,27.40
2022-08-04T20:51:01.714Z,27.40
2022-08-04T20:53:46.881Z,27.40
2022-08-04T20:56:19.054Z,27.30
2022-08-04T20:58:59.266Z,27.30
2022-08-04T21:01:29.522Z,27.20
2022-08-04T21:04:27.832Z,27.10
2022-08-04T21:06:57.190Z,27.10
2022-08-04T21:09:26.729Z,27.10
2022-08-04T21:12:06.423Z,27.10
2022-08-04T21:14:34.586Z,27.10
2022-08-04T21:17:07.313Z,26.90
2022-08-04T21:19:36.773Z,26.90
2022-08-04T21:22:10.489Z,26.80
2022-08-04T21:24:38.729Z,26.80
2022-08-04T21:27:09.892Z,26.80
2022-08-04T21:29:38.139Z,26.80
2022-08-04T21:32:09.674Z,26.80
2022-08-04T21:34:39.797Z,26.80
2022-08-04T21:37:10.030Z,26.80
2022-08-04T21:39:51.075Z,26.80
2022-08-04T21:42:28.716Z,26.70
2022-08-04T21:45:11.331Z,26.60
2022-08-04T21:47:46.561Z,26.60
2022-08-04T21:50:19.626Z,26.50
2022-08-04T21:52:49.172Z,26.50
2022-08-04T21:55:19.091Z,26.40
2022-08-04T21:57:49.265Z,26.40
2022-08-04T22:00:19.399Z,26.40
2022-08-04T22:02:53.448Z,26.30
2022-08-04T22:05:22.007Z,26.20
2022-08-04T22:07:51.650Z,26.20
2022-08-04T22:10:31.949Z,26.10
2022-08-04T22:13:06.966Z,26.00
2022-08-04T22:16:05.150Z,25.90
2022-08-04T22:18:27.827Z,25.90
2022-08-04T22:20:56.096Z,25.80
2022-08-04T22:23:25.413Z,25.80
2022-08-04T22:25:56.063Z,25.60
2022-08-04T22:28:28.284Z,25.60
2022-08-04T22:30:56.590Z,25.50
2022-08-04T22:33:53.866Z,25.50
2022-08-04T22:36:14.767Z,25.40
2022-08-04T22:38:48.605Z,25.40
2022-08-04T22:41:20.075Z,25.40
2022-08-04T22:43:55.066Z,25.40
2022-08-04T22:46:24.232Z,25.40
2022-08-04T22:48:54.026Z,25.40
2022-08-04T22:51:22.494Z,25.30
2022-08-04T22:53:51.896Z,25.40
2022-08-04T22:56:37.121Z,25.20
2022-08-04T22:59:06.829Z,25.20
2022-08-04T23:01:59.101Z,25.20
2022-08-04T23:04:28.412Z,25.10
2022-08-04T23:06:56.449Z,25.20
2022-08-04T23:09:49.102Z,25.10
2022-08-04T23:12:24.292Z,25.10
2022-08-04T23:14:54.785Z,25.00
2022-08-04T23:17:23.248Z,25.00
2022-08-04T23:19:58.208Z,24.90
2022-08-04T23:22:41.718Z,25.00
2022-08-04T23:25:15.850Z,25.00
2022-08-04T23:27:50.549Z,24.90
2022-08-04T23:30:21.838Z,24.90
2022-08-04T23:32:53.356Z,24.90
2022-08-04T23:35:22.787Z,24.90
2022-08-04T23:37:57.361Z,24.90
2022-08-04T23:40:32.654Z,24.90
2022-08-04T23:43:12.322Z,24.90
2022-08-04T23:46:04.411Z,24.80
2022-08-04T23:48:34.334Z,24.90
2022-08-04T23:51:14.569Z,24.90
2022-08-04T23:54:02.011Z,24.90
2022-08-04T23:56:32.050Z,24.90
2022-08-04T23:59:03.672Z,24.80
